Time;durP1;ratioP1;P1;durP2;ratioP2;P2;SDS_P1;SDS_P2;PMS_P1;PMS_P2;Temp;Humidity;BMP_temperature;BMP_pressure;BME280_temperature;BME280_humidity;BME280_pressure;Samples;Min_cycle;Max_cycle;Signal;HPM_P1;HPM_P2
2020/12/13 00:00:50;;;;;;;80.88;34.58;;;3.80;99.90;;;;;;5029377;28;20051;-60
2020/12/13 00:03:16;;;;;;;89.70;35.90;;;3.80;99.90;;;;;;5026823;28;20358;-60
2020/12/13 00:05:43;;;;;;;78.20;35.20;;;3.70;99.90;;;;;;5032307;28;20048;-59
2020/12/13 00:08:09;;;;;;;87.00;34.50;;;3.70;99.90;;;;;;5030375;28;20609;-60
2020/12/13 00:10:35;;;;;;;82.00;35.60;;;3.80;99.90;;;;;;5033428;28;20041;-60
2020/12/13 00:13:00;;;;;;;88.85;36.20;;;3.80;99.90;;;;;;5018619;28;20029;-60
2020/12/13 00:15:26;;;;;;;81.13;35.75;;;3.80;99.90;;;;;;5011134;28;20488;-60
2020/12/13 00:17:52;;;;;;;85.15;36.40;;;3.70;99.90;;;;;;5030875;28;20036;-60
2020/12/13 00:20:18;;;;;;;91.53;37.25;;;3.80;99.90;;;;;;5033700;28;20842;-60
2020/12/13 00:22:45;;;;;;;85.03;36.67;;;3.80;99.90;;;;;;5033884;28;20137;-60
2020/12/13 00:25:11;;;;;;;81.40;33.72;;;3.80;99.90;;;;;;5031323;28;21323;-60
2020/12/13 00:27:38;;;;;;;86.22;36.63;;;3.80;99.90;;;;;;5034265;28;20040;-60
2020/12/13 00:30:05;;;;;;;80.38;35.58;;;3.80;99.90;;;;;;5028428;28;20044;-60
2020/12/13 00:32:31;;;;;;;88.88;36.85;;;3.80;99.90;;;;;;5028434;28;20029;-59
2020/12/13 00:34:58;;;;;;;83.78;34.45;;;3.90;99.90;;;;;;5031280;28;20439;-59
2020/12/13 00:37:25;;;;;;;87.20;37.88;;;3.80;99.90;;;;;;5024622;28;20574;-60
2020/12/13 00:39:51;;;;;;;87.85;35.65;;;3.80;99.90;;;;;;5009624;28;20080;-60
2020/12/13 00:42:17;;;;;;;85.03;33.92;;;3.80;99.90;;;;;;5031451;28;20032;-60
2020/12/13 00:44:43;;;;;;;84.03;34.38;;;3.80;99.90;;;;;;5033320;28;20327;-60
2020/12/13 00:47:09;;;;;;;88.13;37.72;;;3.80;99.90;;;;;;5031540;28;20090;-60
2020/12/13 00:49:35;;;;;;;91.20;35.10;;;3.80;99.90;;;;;;5033545;28;20607;-60
2020/12/13 00:52:02;;;;;;;80.00;35.10;;;3.80;99.90;;;;;;5032061;28;20649;-60
2020/12/13 00:54:28;;;;;;;92.43;37.50;;;3.90;99.90;;;;;;5029818;28;20420;-60
2020/12/13 00:56:54;;;;;;;86.22;35.75;;;3.90;99.90;;;;;;5031468;28;20025;-60
2020/12/13 00:59:20;;;;;;;79.93;36.42;;;3.90;99.90;;;;;;5033346;28;20033;-60
2020/12/13 01:01:46;;;;;;;85.88;36.13;;;3.90;99.90;;;;;;5026455;28;20021;-59
2020/12/13 01:04:12;;;;;;;84.55;34.85;;;3.90;99.90;;;;;;5001205;28;20090;-60
2020/12/13 01:06:38;;;;;;;93.75;37.25;;;3.90;99.90;;;;;;5027271;28;20037;-60
2020/12/13 01:09:04;;;;;;;83.72;35.13;;;3.80;99.90;;;;;;5022991;28;20842;-60
2020/12/13 01:11:32;;;;;;;80.60;34.97;;;3.90;99.90;;;;;;5026612;28;20048;-60
2020/12/13 01:13:58;;;;;;;89.25;37.95;;;3.70;99.90;;;;;;5021978;28;20025;-60
2020/12/13 01:16:26;;;;;;;81.28;35.85;;;3.70;99.90;;;;;;5025674;28;20037;-60
2020/12/13 01:18:53;;;;;;;80.72;35.40;;;3.80;99.90;;;;;;5028960;28;20029;-60
2020/12/13 01:21:24;;;;;;;78.68;36.25;;;3.90;99.90;;;;;;5027475;28;20024;-60
2020/12/13 01:23:51;;;;;;;81.75;35.42;;;3.90;99.90;;;;;;5026439;28;20510;-60
2020/12/13 01:26:18;;;;;;;74.30;34.55;;;3.80;99.90;;;;;;5014049;28;20037;-59
2020/12/13 01:28:44;;;;;;;82.38;34.95;;;3.80;99.90;;;;;;5031223;28;20055;-60
2020/12/13 01:31:15;;;;;;;77.25;33.63;;;3.80;99.90;;;;;;5015942;28;20037;-60
2020/12/13 01:33:41;;;;;;;89.78;36.83;;;3.80;99.90;;;;;;4995566;28;20036;-60
2020/12/13 01:36:25;;;;;;;78.38;34.17;;;3.80;99.90;;;;;;5031097;28;20056;-60
2020/12/13 01:38:52;;;;;;;89.03;36.42;;;3.80;99.90;;;;;;5011643;28;20041;-60
2020/12/13 01:41:18;;;;;;;89.88;37.80;;;3.80;99.90;;;;;;5033055;28;20626;-60
2020/12/13 01:43:58;;;;;;;81.20;36.08;;;3.80;99.90;;;;;;5032185;28;20041;-60
2020/12/13 01:46:24;;;;;;;;;;;3.80;99.90;;;;;;5031346;28;20060;-59
2020/12/13 01:49:00;;;;;;;76.03;33.47;;;3.80;99.90;;;;;;5034289;28;20348;-60
2020/12/13 01:51:51;;;;;;;79.60;33.55;;;3.90;99.90;;;;;;5031239;28;20619;-60
2020/12/13 01:54:19;;;;;;;76.95;35.50;;;3.90;99.90;;;;;;5038239;28;20037;-60
2020/12/13 01:56:58;;;;;;;77.60;34.47;;;3.90;99.90;;;;;;5033352;28;20886;-60
2020/12/13 01:59:25;;;;;;;80.18;36.03;;;3.90;99.90;;;;;;5039097;28;20040;-60
2020/12/13 02:02:01;;;;;;;88.03;35.53;;;3.80;99.90;;;;;;5034077;28;20037;-60
2020/12/13 02:04:28;;;;;;;80.53;32.63;;;3.80;99.90;;;;;;5029062;28;20029;-60
2020/12/13 02:06:55;;;;;;;77.85;34.70;;;3.80;99.90;;;;;;5036072;28;20032;-60
2020/12/13 02:09:22;;;;;;;72.82;32.65;;;3.90;99.90;;;;;;5038173;28;20033;-60
2020/12/13 02:11:48;;;;;;;81.35;34.22;;;3.80;99.90;;;;;;5035838;28;20064;-59
2020/12/13 02:14:14;;;;;;;76.38;33.70;;;3.90;99.90;;;;;;5029745;28;20098;-60
2020/12/13 02:16:43;;;;;;;78.85;33.67;;;3.90;99.90;;;;;;5036056;28;20033;-60
2020/12/13 02:19:14;;;;;;;82.45;35.35;;;3.90;99.90;;;;;;5037769;28;20081;-60
2020/12/13 02:21:48;;;;;;;70.00;30.98;;;3.90;99.90;;;;;;5036013;28;20036;-60
2020/12/13 02:24:14;;;;;;;68.57;33.88;;;3.80;99.90;;;;;;5037041;28;20060;-60
2020/12/13 02:26:42;;;;;;;81.82;32.65;;;3.80;99.90;;;;;;5034863;28;20025;-60
2020/12/13 02:29:08;;;;;;;79.00;34.00;;;3.80;99.90;;;;;;5040291;28;20106;-60
2020/12/13 02:31:34;;;;;;;77.70;32.53;;;3.70;99.90;;;;;;5038770;28;20052;-60
2020/12/13 02:34:02;;;;;;;77.57;32.97;;;3.70;99.90;;;;;;5032603;28;20025;-60
2020/12/13 02:36:31;;;;;;;68.22;31.77;;;3.80;99.90;;;;;;5031892;28;20029;-60
2020/12/13 02:38:59;;;;;;;76.22;33.20;;;3.80;99.90;;;;;;5038142;28;20225;-60
2020/12/13 02:41:25;;;;;;;74.88;32.50;;;3.70;99.90;;;;;;5039216;28;20072;-60
2020/12/13 02:43:50;;;;;;;67.45;31.42;;;3.80;99.90;;;;;;5019654;28;20025;-60
2020/12/13 02:46:16;;;;;;;77.85;33.28;;;3.80;99.90;;;;;;5038316;28;20135;-60
2020/12/13 02:48:42;;;;;;;72.40;32.28;;;3.70;99.90;;;;;;5036907;28;20056;-60
2020/12/13 02:51:08;;;;;;;70.53;32.70;;;3.70;99.90;;;;;;5020871;28;20448;-60
2020/12/13 02:53:34;;;;;;;72.82;31.88;;;3.70;99.90;;;;;;5033403;28;20778;-60
2020/12/13 02:55:59;;;;;;;68.60;32.35;;;3.70;99.90;;;;;;5035758;28;20450;-60
2020/12/13 02:58:25;;;;;;;70.78;32.58;;;3.70;99.90;;;;;;5039830;28;20221;-60
2020/12/13 03:00:51;;;;;;;66.90;31.77;;;3.70;99.90;;;;;;5033589;28;20029;-60
2020/12/13 03:03:17;;;;;;;70.03;31.55;;;3.70;99.90;;;;;;5015940;28;20022;-60
2020/12/13 03:05:42;;;;;;;65.50;32.13;;;3.70;99.90;;;;;;5033151;28;20123;-60
2020/12/13 03:08:08;;;;;;;75.03;32.90;;;3.70;99.90;;;;;;5036639;28;20059;-60
2020/12/13 03:10:34;;;;;;;73.78;32.20;;;3.70;99.90;;;;;;5032427;28;20048;-60
2020/12/13 03:13:00;;;;;;;71.90;32.75;;;3.60;99.90;;;;;;5032646;28;20035;-60
2020/12/13 03:15:26;;;;;;;73.03;31.58;;;3.60;99.90;;;;;;5038482;28;20040;-60
2020/12/13 03:17:52;;;;;;;67.50;30.92;;;3.70;99.90;;;;;;5033232;28;20044;-60
2020/12/13 03:20:17;;;;;;;70.25;32.28;;;3.60;99.90;;;;;;5032906;28;20107;-60
2020/12/13 03:22:43;;;;;;;71.35;31.38;;;3.60;99.90;;;;;;5034840;28;20056;-60
2020/12/13 03:25:09;;;;;;;74.57;32.03;;;3.60;99.90;;;;;;5013765;28;20323;-60
2020/12/13 03:27:35;;;;;;;71.00;31.67;;;3.60;99.90;;;;;;5009549;28;20124;-60
2020/12/13 03:30:01;;;;;;;82.10;33.45;;;3.50;99.90;;;;;;5035320;28;20033;-60
2020/12/13 03:32:26;;;;;;;72.38;33.30;;;3.60;99.90;;;;;;5026090;28;20033;-60
2020/12/13 03:34:53;;;;;;;76.68;33.95;;;3.60;99.90;;;;;;5028881;28;20443;-60
2020/12/13 03:37:19;;;;;;;70.97;33.28;;;3.70;99.90;;;;;;5032137;28;20477;-60
2020/12/13 03:39:45;;;;;;;70.25;32.08;;;3.70;99.90;;;;;;5020297;28;20044;-60
2020/12/13 03:42:11;;;;;;;72.57;31.92;;;3.70;99.90;;;;;;5023671;28;20021;-60
2020/12/13 03:44:37;;;;;;;72.05;30.58;;;3.70;99.90;;;;;;5031888;28;20029;-60
2020/12/13 03:47:03;;;;;;;74.30;31.20;;;3.70;99.90;;;;;;5028838;28;20041;-60
2020/12/13 03:49:29;;;;;;;65.75;30.77;;;3.70;99.90;;;;;;5019291;28;20079;-60
2020/12/13 03:51:54;;;;;;;66.80;30.50;;;3.70;99.90;;;;;;5032472;28;20028;-60
2020/12/13 03:54:20;;;;;;;65.70;30.13;;;3.80;99.90;;;;;;5030983;28;20041;-60
2020/12/13 03:56:46;;;;;;;67.90;31.55;;;3.70;99.90;;;;;;5035949;28;20040;-60
2020/12/13 03:59:12;;;;;;;68.18;31.92;;;3.60;99.90;;;;;;5013073;28;20036;-60
2020/12/13 04:01:37;;;;;;;69.65;32.60;;;3.70;99.90;;;;;;5030805;28;20037;-60
2020/12/13 04:04:03;;;;;;;74.07;32.20;;;3.70;99.90;;;;;;5022977;28;20020;-60
2020/12/13 04:06:29;;;;;;;71.20;31.70;;;3.70;99.90;;;;;;5033617;28;20033;-60
2020/12/13 04:08:55;;;;;;;77.30;32.85;;;3.60;99.90;;;;;;5027997;28;20635;-59
2020/12/13 04:11:20;;;;;;;70.43;31.58;;;3.60;99.90;;;;;;5034307;28;20159;-60
2020/12/13 04:13:46;;;;;;;64.25;28.67;;;3.60;99.90;;;;;;5027281;28;20069;-59
2020/12/13 04:16:12;;;;;;;62.38;29.92;;;3.60;99.90;;;;;;5030897;28;20079;-60
2020/12/13 04:18:39;;;;;;;67.38;30.70;;;3.60;99.90;;;;;;5033448;28;20120;-60
2020/12/13 04:21:05;;;;;;;57.40;28.75;;;3.70;99.90;;;;;;5023763;28;20461;-60
2020/12/13 04:23:33;;;;;;;57.72;28.38;;;3.70;99.90;;;;;;5026583;28;20033;-60
2020/12/13 04:25:59;;;;;;;61.95;28.58;;;3.70;99.90;;;;;;5029924;28;20345;-60
2020/12/13 04:28:24;;;;;;;60.25;30.05;;;3.70;99.90;;;;;;5032961;28;20544;-60
2020/12/13 04:30:50;;;;;;;58.78;29.10;;;3.70;99.90;;;;;;5035101;28;20194;-60
2020/12/13 04:33:16;;;;;;;59.38;28.83;;;3.70;99.90;;;;;;5030124;28;20080;-60
2020/12/13 04:35:42;;;;;;;61.53;28.45;;;3.70;99.90;;;;;;5003526;28;20067;-60
2020/12/13 04:38:08;;;;;;;57.47;28.08;;;3.60;99.90;;;;;;5030179;28;20461;-60
2020/12/13 04:40:34;;;;;;;66.75;30.77;;;3.60;99.90;;;;;;5029072;28;20036;-60
2020/12/13 04:43:01;;;;;;;65.57;30.50;;;3.70;99.90;;;;;;5026889;28;20152;-60
2020/12/13 04:45:27;;;;;;;63.20;28.10;;;3.70;99.90;;;;;;5030765;28;20484;-60
2020/12/13 04:48:04;;;;;;;60.72;28.90;;;3.70;99.90;;;;;;5029486;28;20047;-60
2020/12/13 04:50:34;;;;;;;63.53;30.05;;;3.70;99.90;;;;;;5035020;28;20190;-60
2020/12/13 04:53:05;;;;;;;56.42;27.98;;;3.70;99.90;;;;;;5024684;28;20021;-60
2020/12/13 04:55:32;;;;;;;62.25;28.70;;;3.70;99.90;;;;;;5032296;28;20033;-60
2020/12/13 04:57:58;;;;;;;60.92;29.92;;;3.60;99.90;;;;;;5020861;28;20029;-60
2020/12/13 05:00:26;;;;;;;56.08;28.67;;;3.70;99.90;;;;;;5020562;28;20106;-60
2020/12/13 05:02:52;;;;;;;63.53;29.58;;;3.60;99.90;;;;;;5025097;28;20352;-60
2020/12/13 05:05:20;;;;;;;57.50;27.75;;;3.70;99.90;;;;;;5027225;28;20032;-60
2020/12/13 05:07:46;;;;;;;65.43;28.10;;;3.70;99.90;;;;;;5033810;28;20040;-59
2020/12/13 05:10:12;;;;;;;55.10;27.80;;;3.70;99.90;;;;;;5030611;28;20045;-60
2020/12/13 05:12:38;;;;;;;61.85;28.73;;;3.60;99.90;;;;;;5028756;28;20045;-60
2020/12/13 05:15:04;;;;;;;66.38;27.88;;;3.50;99.90;;;;;;5028186;28;20431;-60
2020/12/13 05:17:33;;;;;;;69.88;31.95;;;3.50;99.90;;;;;;5027728;28;20370;-60
2020/12/13 05:19:59;;;;;;;57.28;30.15;;;3.60;99.90;;;;;;5027791;28;20029;-60
2020/12/13 05:22:24;;;;;;;56.92;29.25;;;3.50;99.90;;;;;;5029101;28;20033;-60
2020/12/13 05:24:50;;;;;;;61.95;28.08;;;3.60;99.90;;;;;;5013273;28;20037;-60
2020/12/13 05:27:22;;;;;;;57.28;27.70;;;3.60;99.90;;;;;;5025995;28;20052;-60
2020/12/13 05:29:52;;;;;;;58.67;27.83;;;3.60;99.90;;;;;;5033422;28;20127;-60
2020/12/13 05:32:23;;;;;;;58.95;27.98;;;3.60;99.90;;;;;;5008091;28;20041;-60
2020/12/13 05:34:51;;;;;;;54.53;26.15;;;3.50;99.90;;;;;;5002705;28;20111;-60
2020/12/13 05:37:18;;;;;;;53.50;26.55;;;3.50;99.90;;;;;;5006155;28;20068;-60
2020/12/13 05:39:49;;;;;;;54.28;27.52;;;3.60;99.90;;;;;;5003869;28;20144;-60
2020/12/13 05:42:28;;;;;;;49.15;26.10;;;3.50;99.90;;;;;;5005875;28;20140;-60
2020/12/13 05:48:05;;;;;;;57.28;27.05;;;3.50;99.90;;;;;;5002825;28;20032;-60
2020/12/13 05:50:52;;;;;;;52.83;25.25;;;3.50;99.90;;;;;;5018293;28;20862;-60
2020/12/13 05:53:18;;;;;;;51.10;24.92;;;3.50;99.90;;;;;;5016345;28;20574;-60
2020/12/13 05:55:44;;;;;;;46.40;24.83;;;3.50;99.90;;;;;;5017026;28;20029;-60
2020/12/13 05:58:10;;;;;;;53.97;26.63;;;3.50;99.90;;;;;;5017173;28;20507;-60
2020/12/13 06:00:36;;;;;;;46.67;23.30;;;3.60;99.90;;;;;;5017012;28;20035;-60
2020/12/13 06:03:05;;;;;;;44.83;23.48;;;3.60;99.90;;;;;;5017700;28;20028;-60
2020/12/13 06:05:35;;;;;;;51.38;26.25;;;3.50;99.90;;;;;;5031599;28;20040;-60
2020/12/13 06:08:04;;;;;;;44.08;23.45;;;3.60;99.90;;;;;;5022079;28;20029;-60
2020/12/13 06:10:34;;;;;;;50.53;25.73;;;3.60;99.90;;;;;;5017593;28;20041;-60
2020/12/13 06:13:06;;;;;;;47.90;24.50;;;3.50;99.90;;;;;;5026539;28;20419;-60
2020/12/13 06:15:33;;;;;;;44.38;22.42;;;3.50;99.90;;;;;;5026301;28;20078;-60
2020/12/13 06:18:00;;;;;;;45.45;23.70;;;3.50;99.90;;;;;;5011387;28;20029;-60
2020/12/13 06:20:27;;;;;;;49.53;23.75;;;3.60;99.90;;;;;;5018911;28;20444;-60
2020/12/13 06:22:55;;;;;;;46.78;23.75;;;3.60;99.90;;;;;;5016987;28;20037;-60
2020/12/13 06:25:21;;;;;;;48.30;23.95;;;3.50;99.90;;;;;;5015089;28;20581;-60
2020/12/13 06:27:49;;;;;;;48.63;24.35;;;3.50;99.90;;;;;;5015965;28;20037;-60
2020/12/13 06:30:16;;;;;;;50.67;24.00;;;3.50;99.90;;;;;;5018233;28;20649;-60
2020/12/13 06:32:43;;;;;;;43.15;22.83;;;3.60;99.90;;;;;;5029020;28;20032;-60
2020/12/13 06:35:10;;;;;;;44.65;23.63;;;3.50;99.90;;;;;;5025985;28;20447;-60
2020/12/13 06:37:37;;;;;;;42.58;22.95;;;3.50;99.90;;;;;;5024604;28;20048;-60
2020/12/13 06:40:05;;;;;;;44.78;23.52;;;3.50;99.90;;;;;;5034404;28;20039;-60
2020/12/13 06:42:38;;;;;;;46.80;24.55;;;3.50;99.90;;;;;;5025468;28;20103;-60
2020/12/13 06:45:04;;;;;;;41.90;22.52;;;3.50;99.90;;;;;;5023366;28;20060;-60
2020/12/13 06:47:31;;;;;;;48.20;24.25;;;3.50;99.90;;;;;;5020696;28;20132;-60
2020/12/13 06:49:57;;;;;;;43.55;23.90;;;3.50;99.90;;;;;;5031983;28;20642;-60
2020/12/13 06:52:33;;;;;;;46.00;23.52;;;3.50;99.90;;;;;;5032803;28;20037;-60
2020/12/13 06:55:01;;;;;;;43.67;22.05;;;3.40;99.90;;;;;;5025263;28;20029;-60
2020/12/13 06:57:29;;;;;;;45.88;23.90;;;3.30;99.90;;;;;;5018498;28;20515;-60
2020/12/13 06:59:56;;;;;;;49.35;24.00;;;3.40;99.90;;;;;;5033762;28;20032;-60
2020/12/13 07:02:44;;;;;;;50.75;26.00;;;3.40;99.90;;;;;;5027739;28;20038;-60
2020/12/13 07:05:10;;;;;;;46.95;24.25;;;3.30;99.90;;;;;;5025859;28;20559;-60
2020/12/13 07:07:38;;;;;;;49.60;23.67;;;3.40;99.90;;;;;;5030028;28;20423;-60
2020/12/13 07:10:08;;;;;;;45.28;23.50;;;3.40;99.90;;;;;;5022039;28;20049;-60
2020/12/13 07:12:35;;;;;;;45.00;23.55;;;3.50;99.90;;;;;;5022433;28;20032;-60
2020/12/13 07:15:00;;;;;;;45.70;23.10;;;3.40;99.90;;;;;;5017927;28;20033;-60
2020/12/13 07:17:33;;;;;;;47.28;22.88;;;3.30;99.90;;;;;;5034843;28;20511;-60
2020/12/13 07:20:00;;;;;;;45.85;23.52;;;3.30;99.90;;;;;;5018435;28;20039;-60
2020/12/13 07:22:33;;;;;;;42.08;21.15;;;3.30;99.90;;;;;;5022111;28;20072;-60
2020/12/13 07:24:59;;;;;;;44.30;22.92;;;3.30;99.90;;;;;;5033892;28;20037;-60
2020/12/13 07:27:26;;;;;;;51.13;23.10;;;3.30;99.90;;;;;;5010680;28;20029;-59
2020/12/13 07:29:55;;;;;;;43.67;23.20;;;3.40;99.90;;;;;;5033716;28;20091;-60
2020/12/13 07:32:23;;;;;;;51.83;25.40;;;3.30;99.90;;;;;;5036019;28;20029;-60
2020/12/13 07:34:49;;;;;;;48.15;23.90;;;3.30;99.90;;;;;;5032400;28;20036;-60
2020/12/13 07:37:17;;;;;;;46.20;24.42;;;3.20;99.90;;;;;;5027345;28;20628;-60
2020/12/13 07:39:43;;;;;;;46.47;24.73;;;3.30;99.90;;;;;;5025086;28;20654;-60
2020/12/13 07:42:13;;;;;;;44.13;23.02;;;3.30;99.90;;;;;;5033303;28;20561;-60
2020/12/13 07:44:40;;;;;;;46.42;23.00;;;3.30;99.90;;;;;;5023609;28;20067;-60
2020/12/13 07:47:06;;;;;;;46.00;23.55;;;3.30;99.90;;;;;;5037350;28;20114;-60
2020/12/13 07:49:31;;;;;;;42.75;22.60;;;3.30;99.90;;;;;;5029782;28;20044;-60
2020/12/13 07:51:57;;;;;;;42.47;22.60;;;3.30;99.90;;;;;;5028438;28;20651;-60
2020/12/13 07:54:26;;;;;;;49.88;24.38;;;3.30;99.90;;;;;;5022820;28;20025;-60
2020/12/13 07:56:56;;;;;;;47.45;23.33;;;3.30;99.90;;;;;;5025712;28;20384;-60
2020/12/13 07:59:26;;;;;;;45.85;23.40;;;3.30;99.90;;;;;;5015121;28;20039;-60
2020/12/13 08:01:54;;;;;;;42.90;21.23;;;3.40;99.90;;;;;;5023311;28;20489;-60
2020/12/13 08:04:35;;;;;;;43.05;22.17;;;3.40;99.90;;;;;;5009935;28;20160;-60
2020/12/13 08:07:06;;;;;;;41.75;22.70;;;3.40;99.90;;;;;;4983440;28;20475;-60
2020/12/13 08:09:32;;;;;;;41.00;20.70;;;3.40;99.90;;;;;;5011016;28;20079;-60
2020/12/13 08:11:58;;;;;;;49.83;23.38;;;3.40;99.90;;;;;;5017273;28;20560;-60
2020/12/13 08:14:25;;;;;;;45.45;23.08;;;3.40;99.90;;;;;;5002151;28;20072;-61
2020/12/13 08:16:53;;;;;;;41.17;21.90;;;3.40;99.90;;;;;;5003117;28;20548;-60
2020/12/13 08:19:32;;;;;;;49.15;24.38;;;3.40;99.90;;;;;;5007716;28;20036;-60
2020/12/13 08:22:08;;;;;;;47.53;23.80;;;3.40;99.90;;;;;;4982964;28;20033;-60
2020/12/13 08:24:36;;;;;;;48.85;24.48;;;3.40;99.90;;;;;;5005543;28;20450;-60
2020/12/13 08:27:03;;;;;;;48.95;24.20;;;3.40;99.90;;;;;;5002889;28;20026;-60
2020/12/13 08:29:32;;;;;;;51.63;24.25;;;3.40;99.90;;;;;;4986256;28;20083;-60
2020/12/13 08:32:00;;;;;;;48.70;23.05;;;3.50;99.90;;;;;;5004156;28;20052;-60
2020/12/13 08:34:30;;;;;;;53.20;24.25;;;3.50;99.90;;;;;;5011270;28;20139;-60
2020/12/13 08:36:58;;;;;;;;;;;3.50;99.90;;;;;;5013327;28;22773;-60
2020/12/13 08:39:29;;;;;;;48.45;24.27;;;3.50;99.90;;;;;;5002878;28;20433;-60
2020/12/13 08:41:57;;;;;;;47.38;23.90;;;3.50;99.90;;;;;;5003679;28;20037;-60
2020/12/13 08:44:29;;;;;;;48.30;24.80;;;3.50;99.90;;;;;;5028251;28;20720;-60
2020/12/13 08:46:56;;;;;;;48.28;25.08;;;3.50;99.90;;;;;;5030724;28;20362;-60
2020/12/13 08:49:34;;;;;;;51.70;24.63;;;3.50;99.90;;;;;;5005850;28;20078;-60
2020/12/13 08:52:16;;;;;;;48.55;24.58;;;3.60;99.90;;;;;;5024845;28;20029;-63
2020/12/13 08:54:52;;;;;;;48.20;23.77;;;3.50;99.90;;;;;;5028148;28;20033;-60
2020/12/13 08:57:28;;;;;;;49.40;23.58;;;3.50;99.90;;;;;;5028865;28;20325;-60
2020/12/13 09:00:03;;;;;;;49.67;24.58;;;3.60;99.90;;;;;;5027989;28;20051;-60
2020/12/13 09:02:29;;;;;;;46.65;24.17;;;3.50;99.90;;;;;;5028010;28;20028;-60
2020/12/13 09:04:56;;;;;;;50.35;23.63;;;3.50;99.90;;;;;;5014468;28;20549;-60
2020/12/13 09:07:23;;;;;;;47.33;23.48;;;3.60;99.90;;;;;;5033500;28;20025;-60
2020/12/13 09:09:48;;;;;;;50.97;25.25;;;3.70;99.90;;;;;;5028728;28;20057;-60
2020/12/13 09:12:19;;;;;;;47.88;23.98;;;3.70;99.90;;;;;;5034807;28;20562;-60
2020/12/13 09:14:46;;;;;;;53.35;24.90;;;3.70;99.90;;;;;;5032359;28;20567;-60
2020/12/13 09:17:21;;;;;;;52.80;24.25;;;3.80;99.90;;;;;;5015326;28;20041;-60
2020/12/13 09:19:51;;;;;;;51.03;23.73;;;3.70;99.90;;;;;;5032837;28;20025;-60
2020/12/13 09:22:21;;;;;;;54.40;25.98;;;3.80;99.90;;;;;;5031653;28;20037;-60
2020/12/13 09:24:48;;;;;;;;;;;3.80;99.90;;;;;;5032260;28;20033;-60
2020/12/13 09:27:19;;;;;;;52.70;24.05;;;3.70;99.90;;;;;;5034369;28;20014;-60
2020/12/13 09:29:48;;;;;;;51.70;23.52;;;3.70;99.90;;;;;;5030537;28;20029;-60
2020/12/13 09:32:16;;;;;;;52.08;24.20;;;3.80;99.90;;;;;;5029822;28;20032;-60
2020/12/13 09:34:42;;;;;;;55.80;24.55;;;3.80;99.90;;;;;;5027032;28;20021;-60
2020/12/13 09:37:10;;;;;;;50.50;23.73;;;3.80;99.90;;;;;;5028708;28;20049;-60
2020/12/13 09:39:36;;;;;;;50.95;25.42;;;3.90;99.90;;;;;;5012007;28;20535;-60
2020/12/13 09:42:02;;;;;;;45.80;24.15;;;3.90;99.90;;;;;;5030056;28;20489;-60
2020/12/13 09:44:28;;;;;;;49.28;23.23;;;3.90;99.90;;;;;;5031113;28;20029;-61
2020/12/13 09:46:58;;;;;;;49.65;24.13;;;3.90;99.90;;;;;;5030929;28;20059;-60
2020/12/13 09:49:25;;;;;;;52.20;25.02;;;3.90;99.90;;;;;;5012710;28;20028;-60
2020/12/13 09:51:59;;;;;;;51.65;23.45;;;3.90;99.90;;;;;;5030033;28;20262;-60
2020/12/13 09:54:25;;;;;;;53.30;23.80;;;3.90;99.90;;;;;;5033800;28;20024;-60
2020/12/13 09:56:52;;;;;;;48.70;22.75;;;4.00;99.90;;;;;;5032953;28;20028;-60
2020/12/13 09:59:18;;;;;;;45.55;23.55;;;3.90;99.90;;;;;;5032634;28;20659;-60
2020/12/13 10:01:44;;;;;;;49.08;24.67;;;4.00;99.90;;;;;;5034231;28;20035;-60
2020/12/13 10:04:10;;;;;;;54.38;24.55;;;4.00;99.90;;;;;;5031736;28;20523;-61
2020/12/13 10:09:12;;;;;;;47.45;23.73;;;4.00;99.90;;;;;;5018585;28;20033;-60
2020/12/13 10:11:40;;;;;;;54.75;24.08;;;4.00;99.90;;;;;;5022361;28;20123;-60
2020/12/13 10:14:08;;;;;;;50.67;23.90;;;4.00;99.90;;;;;;5028485;28;20025;-60
2020/12/13 10:16:35;;;;;;;42.22;22.13;;;4.00;99.90;;;;;;5019101;28;20451;-60
2020/12/13 10:19:01;;;;;;;49.55;23.75;;;4.10;99.90;;;;;;5020404;28;20032;-60
2020/12/13 10:21:30;;;;;;;48.67;23.80;;;4.00;99.90;;;;;;5016130;28;20052;-60
2020/12/13 10:23:56;;;;;;;51.50;23.55;;;4.00;99.90;;;;;;5026498;28;20151;-60
2020/12/13 10:26:31;;;;;;;45.70;21.60;;;4.00;99.90;;;;;;5031500;28;20472;-60
2020/12/13 10:28:58;;;;;;;44.97;22.73;;;4.10;99.90;;;;;;5038544;28;20039;-60
2020/12/13 10:31:37;;;;;;;54.35;24.08;;;4.10;99.90;;;;;;5028473;28;20041;-60
2020/12/13 10:34:06;;;;;;;47.92;22.35;;;4.10;99.90;;;;;;5031849;28;20429;-60
2020/12/13 10:36:33;;;;;;;51.50;23.50;;;4.20;99.90;;;;;;5024328;28;20033;-60
2020/12/13 10:38:59;;;;;;;51.38;24.67;;;4.20;99.90;;;;;;5035614;28;20669;-60
2020/12/13 10:41:25;;;;;;;43.55;22.00;;;4.20;99.90;;;;;;5034071;28;20584;-60
2020/12/13 10:43:51;;;;;;;45.05;23.15;;;4.20;99.90;;;;;;5023113;28;20377;-60
2020/12/13 10:46:18;;;;;;;49.03;22.67;;;4.20;99.90;;;;;;5024124;28;20382;-60
2020/12/13 10:48:44;;;;;;;46.28;22.38;;;4.20;99.90;;;;;;5006802;28;20067;-60
2020/12/13 10:51:10;;;;;;;48.55;24.17;;;4.20;99.90;;;;;;5016651;28;20041;-60
2020/12/13 10:53:36;;;;;;;51.88;23.98;;;4.20;99.90;;;;;;5031368;28;20057;-60
2020/12/13 10:56:05;;;;;;;48.20;23.40;;;4.20;99.90;;;;;;5037339;28;20257;-60
2020/12/13 10:58:31;;;;;;;49.50;23.73;;;4.30;99.90;;;;;;5032623;28;20032;-60
2020/12/13 11:00:57;;;;;;;55.03;25.35;;;4.20;99.90;;;;;;5025770;28;20033;-60
2020/12/13 11:03:23;;;;;;;52.65;25.23;;;4.30;99.90;;;;;;5021785;28;20079;-59
2020/12/13 11:05:49;;;;;;;53.72;24.67;;;4.30;99.90;;;;;;5027663;28;20112;-60
2020/12/13 11:08:15;;;;;;;60.42;27.13;;;4.40;99.90;;;;;;5030591;28;20459;-60
2020/12/13 11:10:46;;;;;;;55.30;26.38;;;4.40;99.90;;;;;;5031458;28;20037;-60
2020/12/13 11:13:13;;;;;;;59.20;28.38;;;4.30;99.90;;;;;;5024884;28;20540;-60
2020/12/13 11:15:39;;;;;;;55.35;26.35;;;4.30;99.90;;;;;;5014941;28;20087;-65
2020/12/13 11:18:05;;;;;;;52.50;27.23;;;4.40;99.90;;;;;;5034509;28;20061;-64
2020/12/13 11:20:31;;;;;;;59.70;28.30;;;4.30;99.90;;;;;;5033207;28;20036;-64
2020/12/13 11:22:56;;;;;;;59.45;28.70;;;4.40;99.90;;;;;;5021049;28;20021;-64
2020/12/13 11:25:22;;;;;;;59.60;28.77;;;4.40;99.90;;;;;;5028524;28;20083;-64
2020/12/13 11:27:48;;;;;;;61.35;27.58;;;4.40;99.90;;;;;;5030286;28;20032;-64
2020/12/13 11:30:14;;;;;;;56.88;27.48;;;4.40;99.90;;;;;;5033999;28;20350;-64
2020/12/13 11:32:43;;;;;;;56.35;26.63;;;4.40;99.90;;;;;;5011048;28;20308;-63
2020/12/13 11:35:10;;;;;;;71.53;30.25;;;4.40;99.90;;;;;;5035334;28;20427;-64
2020/12/13 11:37:36;;;;;;;54.90;27.25;;;4.50;99.90;;;;;;5031322;28;20049;-64
2020/12/13 11:40:03;;;;;;;60.45;27.02;;;4.50;99.90;;;;;;5033485;28;20450;-64
2020/12/13 11:42:29;;;;;;;64.97;29.73;;;4.40;99.90;;;;;;5033982;28;20035;-64
2020/12/13 11:44:55;;;;;;;69.82;28.20;;;4.50;99.90;;;;;;5031178;28;20029;-64
2020/12/13 11:47:21;;;;;;;72.85;30.55;;;4.40;99.90;;;;;;5035880;28;20481;-64
2020/12/13 11:49:46;;;;;;;61.30;28.70;;;4.40;99.90;;;;;;5030980;28;20033;-64
2020/12/13 11:52:12;;;;;;;60.78;27.60;;;4.40;99.90;;;;;;5018595;28;20124;-63
2020/12/13 11:54:38;;;;;;;63.47;28.00;;;4.40;99.90;;;;;;5016909;28;20026;-64
2020/12/13 11:57:04;;;;;;;64.70;30.40;;;4.30;99.90;;;;;;5019324;28;20370;-64
2020/12/13 11:59:31;;;;;;;60.92;28.92;;;4.30;99.90;;;;;;5023967;28;20459;-64
2020/12/13 12:01:57;;;;;;;60.47;29.70;;;4.40;99.90;;;;;;5010858;28;20041;-64
2020/12/13 12:04:23;;;;;;;61.38;28.95;;;4.50;99.90;;;;;;4998497;28;20808;-65
2020/12/13 12:06:49;;;;;;;63.40;28.42;;;4.40;99.90;;;;;;5006358;28;20044;-64
2020/12/13 12:09:16;;;;;;;62.50;27.92;;;4.50;99.90;;;;;;5003696;28;20038;-63
2020/12/13 12:11:42;;;;;;;57.63;28.50;;;4.50;99.90;;;;;;5003664;28;20131;-64
2020/12/13 12:14:12;;;;;;;60.53;28.05;;;4.40;99.90;;;;;;5013284;28;20083;-65
2020/12/13 12:16:41;;;;;;;63.15;28.52;;;4.50;99.90;;;;;;5020832;28;20162;-65
2020/12/13 12:19:07;;;;;;;58.55;28.23;;;4.50;99.90;;;;;;5017231;28;20075;-64
2020/12/13 12:21:35;;;;;;;57.15;26.40;;;4.50;99.90;;;;;;5027483;28;20492;-64
2020/12/13 12:24:02;;;;;;;57.13;27.48;;;4.50;99.90;;;;;;5014903;28;20044;-65
2020/12/13 12:26:34;;;;;;;62.00;29.60;;;4.50;99.90;;;;;;5024337;28;20037;-65
2020/12/13 12:29:01;;;;;;;65.60;29.85;;;4.50;99.90;;;;;;5030453;28;20076;-65
2020/12/13 12:31:27;;;;;;;61.25;28.95;;;4.50;99.90;;;;;;5029395;28;20160;-65
2020/12/13 12:33:54;;;;;;;62.88;28.88;;;4.50;99.90;;;;;;5022624;28;20037;-65
2020/12/13 12:36:25;;;;;;;59.55;29.73;;;4.40;99.90;;;;;;5017541;28;20041;-65
2020/12/13 12:38:52;;;;;;;69.15;30.73;;;4.50;99.90;;;;;;5003998;28;20025;-65
2020/12/13 12:41:20;;;;;;;59.80;29.83;;;4.40;99.90;;;;;;5031114;28;20037;-65
2020/12/13 12:43:47;;;;;;;59.45;28.20;;;4.50;99.90;;;;;;5023867;28;20608;-65
2020/12/13 12:46:14;;;;;;;59.85;28.15;;;4.50;99.90;;;;;;5020316;28;20389;-65